createdAt,value
2023-05-21T00:02:53.186Z,100.00
2023-05-21T00:06:55.108Z,100.00
2023-05-21T00:10:56.835Z,100.00
2023-05-21T00:14:59.665Z,100.00
2023-05-21T00:19:02.212Z,100.00
2023-05-21T00:23:04.371Z,100.00
2023-05-21T00:27:05.895Z,100.00
2023-05-21T00:31:07.497Z,100.00
2023-05-21T00:35:09.260Z,100.00
2023-05-21T00:39:11.680Z,100.00
2023-05-21T00:43:14.313Z,100.00
2023-05-21T00:47:18.277Z,100.00
2023-05-21T00:51:21.801Z,100.00
2023-05-21T00:55:24.260Z,100.00
2023-05-21T00:59:26.468Z,100.00
2023-05-21T01:03:29.277Z,100.00
2023-05-21T01:07:34.748Z,100.00
2023-05-21T01:11:50.980Z,100.00
2023-05-21T01:15:54.236Z,100.00
2023-05-21T01:19:57.965Z,100.00
2023-05-21T01:23:59.501Z,100.00
2023-05-21T01:28:01.219Z,100.00
2023-05-21T01:32:38.638Z,100.00
2023-05-21T01:36:47.250Z,100.00
2023-05-21T01:40:52.206Z,100.00
2023-05-21T01:44:57.143Z,100.00
2023-05-21T01:48:59.070Z,100.00
2023-05-21T01:53:05.823Z,100.00
2023-05-21T01:57:07.549Z,100.00
2023-05-21T02:01:09.735Z,100.00
2023-05-21T02:05:11.496Z,100.00
2023-05-21T02:09:13.504Z,100.00
2023-05-21T02:13:15.793Z,100.00
2023-05-21T02:17:17.425Z,100.00
2023-05-21T02:21:20.645Z,100.00
2023-05-21T02:25:22.466Z,100.00
2023-05-21T02:29:24.107Z,100.00
2023-05-21T02:33:26.109Z,100.00
2023-05-21T02:37:28.227Z,100.00
2023-05-21T02:41:30.066Z,100.00
2023-05-21T02:45:31.890Z,100.00
2023-05-21T02:49:34.782Z,100.00
2023-05-21T02:53:36.458Z,100.00
2023-05-21T02:57:38.315Z,100.00
2023-05-21T03:01:41.246Z,100.00
2023-05-21T03:05:43.455Z,100.00
2023-05-21T03:09:45.641Z,100.00
2023-05-21T03:13:47.614Z,100.00
2023-05-21T03:17:50.518Z,100.00
2023-05-21T03:21:52.698Z,100.00
2023-05-21T03:25:54.761Z,100.00
2023-05-21T03:29:57.527Z,100.00
2023-05-21T03:33:59.455Z,100.00
2023-05-21T03:38:05.715Z,100.00
2023-05-21T03:42:07.536Z,100.00
2023-05-21T03:46:16.654Z,100.00
2023-05-21T03:50:31.002Z,100.00
2023-05-21T03:54:32.696Z,100.00
2023-05-21T03:58:38.606Z,100.00
2023-05-21T04:02:41.164Z,100.00
2023-05-21T04:06:43.214Z,100.00
2023-05-21T04:10:47.090Z,100.00
2023-05-21T04:14:48.999Z,100.00
2023-05-21T04:18:51.304Z,100.00
2023-05-21T04:22:53.376Z,100.00
2023-05-21T04:26:55.990Z,100.00
2023-05-21T04:30:57.783Z,100.00
2023-05-21T04:35:02.714Z,100.00
2023-05-21T04:39:06.311Z,100.00
2023-05-21T04:43:08.149Z,100.00
2023-05-21T04:47:10.411Z,100.00
2023-05-21T04:51:12.275Z,100.00
2023-05-21T04:55:14.334Z,100.00
2023-05-21T04:59:17.358Z,100.00
2023-05-21T05:03:19.255Z,100.00
2023-05-21T05:07:21.531Z,100.00
2023-05-21T05:11:23.456Z,100.00
2023-05-21T05:15:26.504Z,100.00
2023-05-21T05:19:28.716Z,100.00
2023-05-21T05:23:30.646Z,100.00
2023-05-21T05:27:33.090Z,100.00
2023-05-21T05:31:35.188Z,100.00
2023-05-21T05:35:37.206Z,100.00
2023-05-21T05:39:39.131Z,100.00
2023-05-21T05:43:41.046Z,100.00
2023-05-21T05:47:43.852Z,100.00
2023-05-21T05:51:45.633Z,100.00
2023-05-21T05:55:47.200Z,100.00
2023-05-21T05:59:49.051Z,100.00
2023-05-21T06:03:53.327Z,100.00
2023-05-21T06:07:57.394Z,100.00
2023-05-21T06:12:02.392Z,100.00
2023-05-21T06:16:06.655Z,100.00
2023-05-21T06:20:11.469Z,100.00
2023-05-21T06:24:15.507Z,100.00
2023-05-21T06:28:19.316Z,100.00
2023-05-21T06:32:25.986Z,100.00
2023-05-21T06:36:30.331Z,100.00
2023-05-21T06:40:35.859Z,100.00
2023-05-21T06:44:40.227Z,100.00
2023-05-21T06:48:52.330Z,100.00
2023-05-21T06:52:56.507Z,100.00
2023-05-21T06:57:00.610Z,100.00
2023-05-21T07:01:04.349Z,100.00
2023-05-21T07:05:08.078Z,100.00
2023-05-21T07:09:12.696Z,97.03
2023-05-21T07:13:17.121Z,92.49
2023-05-21T07:17:22.083Z,89.13
2023-05-21T07:21:26.002Z,88.88
2023-05-21T07:25:30.282Z,90.94
2023-05-21T07:29:37.073Z,92.15
2023-05-21T07:33:42.199Z,90.46
2023-05-21T07:37:46.924Z,85.73
2023-05-21T07:41:49.459Z,84.30
2023-05-21T07:45:51.731Z,83.01
2023-05-21T07:49:54.013Z,82.16
2023-05-21T07:53:56.481Z,88.69
2023-05-21T07:58:06.434Z,81.17
2023-05-21T08:02:08.800Z,77.76
2023-05-21T08:06:10.492Z,71.68
2023-05-21T08:10:12.362Z,70.47
2023-05-21T08:14:14.991Z,76.58
2023-05-21T08:18:17.813Z,72.24
2023-05-21T08:22:20.980Z,75.43
2023-05-21T08:26:22.664Z,82.11
2023-05-21T08:30:24.516Z,78.62
2023-05-21T08:34:26.583Z,78.67
2023-05-21T08:38:39.942Z,70.95
2023-05-21T08:42:49.831Z,70.96
2023-05-21T08:46:59.193Z,76.76
2023-05-21T08:51:01.312Z,77.37
2023-05-21T08:55:08.617Z,83.89
2023-05-21T08:59:12.739Z,76.93
2023-05-21T09:03:16.581Z,82.71
2023-05-21T09:07:18.643Z,82.92
2023-05-21T09:11:47.885Z,81.02
2023-05-21T09:15:51.420Z,74.40
2023-05-21T09:20:17.468Z,80.96
2023-05-21T09:24:25.413Z,78.39
2023-05-21T09:28:29.468Z,75.30
2023-05-21T09:32:31.308Z,75.63
2023-05-21T09:36:36.524Z,74.43
2023-05-21T09:40:44.483Z,77.73
2023-05-21T09:44:47.359Z,71.52
2023-05-21T09:48:49.269Z,69.75
2023-05-21T09:52:53.577Z,63.30
2023-05-21T09:56:55.332Z,66.43
2023-05-21T10:00:56.991Z,65.79
2023-05-21T10:04:58.895Z,64.21
2023-05-21T10:09:06.087Z,63.82
2023-05-21T10:13:12.424Z,67.65
2023-05-21T10:17:14.676Z,63.69
2023-05-21T10:21:17.059Z,63.71
2023-05-21T10:25:18.915Z,59.33
2023-05-21T10:29:22.956Z,65.40
2023-05-21T10:33:25.460Z,59.79
2023-05-21T10:37:27.515Z,60.69
2023-05-21T10:41:35.706Z,65.92
2023-05-21T10:46:09.076Z,60.79
2023-05-21T10:50:28.777Z,55.77
2023-05-21T10:55:04.761Z,53.58
2023-05-21T10:59:22.204Z,59.47
2023-05-21T11:03:25.216Z,57.43
2023-05-21T11:07:53.623Z,53.68
2023-05-21T11:12:00.153Z,53.20
2023-05-21T11:16:02.134Z,56.03
2023-05-21T11:20:14.177Z,56.21
2023-05-21T11:24:19.487Z,53.87
2023-05-21T11:28:32.913Z,54.58
2023-05-21T11:32:39.402Z,54.84
2023-05-21T11:36:43.742Z,55.66
2023-05-21T11:40:54.789Z,56.20
2023-05-21T11:44:59.942Z,51.83
2023-05-21T11:49:03.455Z,50.96
2023-05-21T11:53:05.257Z,51.61
2023-05-21T11:57:08.106Z,49.81
2023-05-21T12:01:24.448Z,51.65
2023-05-21T12:05:27.076Z,50.02
2023-05-21T12:09:28.742Z,52.56
2023-05-21T12:13:30.638Z,53.43
2023-05-21T12:17:33.002Z,51.82
2023-05-21T12:21:35.620Z,51.53
2023-05-21T12:25:37.327Z,51.91
2023-05-21T12:29:42.383Z,53.91
2023-05-21T12:33:50.998Z,58.07
2023-05-21T12:37:52.884Z,52.22
2023-05-21T12:41:54.898Z,52.46
2023-05-21T12:45:56.691Z,56.48
2023-05-21T12:50:00.039Z,55.14
2023-05-21T12:54:02.169Z,56.98
2023-05-21T12:58:07.788Z,57.85
2023-05-21T13:02:09.401Z,56.37
2023-05-21T13:06:11.161Z,58.22
2023-05-21T13:10:13.366Z,55.70
2023-05-21T13:14:15.621Z,54.65
2023-05-21T13:18:17.611Z,53.93
2023-05-21T13:22:19.415Z,53.89
2023-05-21T13:26:21.335Z,52.07
2023-05-21T13:30:23.046Z,51.52
2023-05-21T13:34:25.627Z,54.34
2023-05-21T13:38:27.212Z,49.98
2023-05-21T13:42:28.894Z,49.88
2023-05-21T13:46:30.690Z,53.59
2023-05-21T13:50:32.323Z,55.27
2023-05-21T13:54:33.822Z,53.77
2023-05-21T13:58:35.701Z,53.99
2023-05-21T14:02:37.431Z,53.62
2023-05-21T14:06:39.538Z,53.64
2023-05-21T14:10:41.625Z,51.28
2023-05-21T14:14:43.779Z,54.31
2023-05-21T14:18:45.611Z,53.63
2023-05-21T14:22:47.365Z,53.12
2023-05-21T14:26:49.962Z,53.18
2023-05-21T14:30:51.605Z,52.13
2023-05-21T14:34:53.279Z,52.15
2023-05-21T14:38:54.797Z,50.17
2023-05-21T14:42:56.300Z,51.47
2023-05-21T14:46:57.826Z,49.80
2023-05-21T14:50:59.451Z,48.92
2023-05-21T14:55:02.894Z,50.83
2023-05-21T14:59:04.622Z,53.75
2023-05-21T15:03:06.685Z,55.94
2023-05-21T15:07:08.444Z,57.00
2023-05-21T15:11:10.449Z,54.28
2023-05-21T15:15:12.540Z,54.21
2023-05-21T15:19:14.507Z,55.71
2023-05-21T15:24:04.970Z,56.37
2023-05-21T15:28:23.016Z,54.14
2023-05-21T15:32:24.922Z,57.31
2023-05-21T15:36:27.067Z,54.59
2023-05-21T15:40:28.737Z,54.31
2023-05-21T15:44:32.019Z,54.30
2023-05-21T15:48:33.792Z,54.87
2023-05-21T15:52:35.515Z,54.91
2023-05-21T15:56:37.260Z,51.96
2023-05-21T16:00:38.970Z,53.94
2023-05-21T16:04:40.715Z,55.52
2023-05-21T16:08:42.707Z,57.43
2023-05-21T16:12:44.801Z,56.96
2023-05-21T16:16:46.895Z,58.67
2023-05-21T16:20:48.638Z,58.07
2023-05-21T16:24:50.442Z,57.26
2023-05-21T16:28:53.484Z,56.26
2023-05-21T16:32:55.298Z,56.48
2023-05-21T16:36:56.949Z,57.22
2023-05-21T16:40:58.849Z,56.78
2023-05-21T16:45:00.441Z,58.58
2023-05-21T16:49:02.034Z,59.31
2023-05-21T16:53:06.028Z,61.14
2023-05-21T16:57:07.647Z,61.20
2023-05-21T17:01:09.252Z,65.51
2023-05-21T17:05:11.057Z,63.78
2023-05-21T17:09:13.058Z,64.39
2023-05-21T17:13:22.297Z,63.27
2023-05-21T17:17:24.887Z,63.28
2023-05-21T17:21:27.266Z,65.31
2023-05-21T17:25:28.887Z,65.78
2023-05-21T17:29:31.121Z,66.63
2023-05-21T17:33:33.944Z,67.91
2023-05-21T17:37:35.779Z,67.64
2023-05-21T17:41:38.178Z,67.12
2023-05-21T17:45:40.196Z,68.81
2023-05-21T17:49:42.062Z,68.27
2023-05-21T17:53:43.709Z,70.29
2023-05-21T17:57:45.925Z,72.75
2023-05-21T18:01:47.624Z,72.21
2023-05-21T18:05:49.942Z,72.55
2023-05-21T18:09:51.549Z,74.85
2023-05-21T18:13:55.921Z,73.70
2023-05-21T18:17:57.961Z,74.16
2023-05-21T18:21:59.771Z,73.89
2023-05-21T18:26:01.431Z,74.18
2023-05-21T18:30:06.149Z,79.04
2023-05-21T18:34:07.894Z,77.99
2023-05-21T18:38:10.247Z,80.75
2023-05-21T18:42:13.951Z,80.16
2023-05-21T18:46:15.947Z,79.87
2023-05-21T18:50:19.085Z,80.84
2023-05-21T18:54:20.908Z,77.44
2023-05-21T18:58:23.577Z,76.46
2023-05-21T19:02:26.372Z,75.68
2023-05-21T19:06:28.183Z,77.30
2023-05-21T19:10:30.706Z,77.90
2023-05-21T19:14:36.105Z,78.42
2023-05-21T19:18:38.102Z,80.10
2023-05-21T19:22:39.824Z,80.57
2023-05-21T19:26:41.312Z,81.48
2023-05-21T19:30:42.878Z,80.34
2023-05-21T19:34:44.525Z,75.65
2023-05-21T19:38:48.191Z,76.34
2023-05-21T19:42:49.811Z,74.84
2023-05-21T19:46:51.523Z,74.85
2023-05-21T19:50:53.269Z,73.16
2023-05-21T19:54:55.021Z,73.74
2023-05-21T19:58:56.498Z,76.81
2023-05-21T20:02:58.230Z,75.91
2023-05-21T20:06:59.982Z,73.59
2023-05-21T20:11:01.674Z,75.51
2023-05-21T20:15:06.638Z,78.39
2023-05-21T20:19:10.748Z,77.76
2023-05-21T20:23:13.078Z,78.73
2023-05-21T20:27:19.252Z,81.60
2023-05-21T20:31:21.743Z,82.80
2023-05-21T20:35:24.616Z,82.50
2023-05-21T20:39:29.701Z,83.84
2023-05-21T20:43:31.304Z,82.31
2023-05-21T20:47:33.674Z,84.43
2023-05-21T20:51:35.346Z,80.81
2023-05-21T20:55:37.061Z,85.59
2023-05-21T20:59:38.704Z,85.70
2023-05-21T21:03:41.388Z,84.37
2023-05-21T21:07:45.585Z,84.46
2023-05-21T21:11:47.429Z,87.63
2023-05-21T21:15:49.235Z,85.77
2023-05-21T21:19:51.232Z,86.54
2023-05-21T21:23:52.910Z,84.41
2023-05-21T21:27:54.451Z,84.27
2023-05-21T21:31:56.022Z,86.52
2023-05-21T21:35:57.695Z,85.55
2023-05-21T21:39:59.247Z,87.61
2023-05-21T21:44:03.696Z,87.66
2023-05-21T21:48:06.708Z,86.63
2023-05-21T21:52:10.760Z,87.82
2023-05-21T21:56:12.537Z,86.95
2023-05-21T22:00:17.383Z,85.50
2023-05-21T22:04:19.454Z,89.92
2023-05-21T22:08:21.574Z,91.33
2023-05-21T22:12:23.404Z,93.33
2023-05-21T22:16:45.211Z,89.99
2023-05-21T22:20:47.145Z,91.74
2023-05-21T22:24:48.922Z,89.73
2023-05-21T22:28:51.392Z,89.60
2023-05-21T22:32:53.042Z,89.93
2023-05-21T22:36:54.836Z,91.03
2023-05-21T22:40:56.521Z,90.95
2023-05-21T22:44:58.104Z,90.96
2023-05-21T22:49:00.151Z,90.69
2023-05-21T22:53:02.006Z,92.44
2023-05-21T22:57:03.978Z,92.51
2023-05-21T23:01:05.886Z,93.33
2023-05-21T23:05:08.108Z,89.80
2023-05-21T23:09:10.001Z,89.75
2023-05-21T23:13:12.795Z,93.38
2023-05-21T23:17:14.657Z,91.67
2023-05-21T23:21:17.330Z,92.91
2023-05-21T23:25:19.198Z,92.81
2023-05-21T23:29:21.436Z,95.91
2023-05-21T23:33:23.025Z,98.01
2023-05-21T23:37:24.686Z,98.26
2023-05-21T23:41:27.551Z,94.66
2023-05-21T23:45:29.258Z,95.27
2023-05-21T23:49:30.979Z,99.63
2023-05-21T23:53:32.619Z,95.38
2023-05-21T23:57:34.313Z,96.33
